X  Sluiten METAR luchtvaart weer gegevens      LYNI Nis Airport
Temperatuur
4°C Temperatuur
0°C Dauwpunt
75% Vochtigheid



Wind
4 M/S
8 MPH
13 KM/U
7 KTS



40°
NO
Huidig weer

Wat bewolking Wat bewolking
Luchtdruk 1018.92 (hPa) - 30.09 (inHg)
Zicht 6.2 (mijl) - 10 (km)
Vliegveld
Vliegveld code LYNI

Locatie : Nis Airport
Afstand: 63 (km)

Metar:
LYNI 010600Z 04007KT 360V080 9999 FEW017 SCT040 04/M00 Q1019 NOSIG

Tijd: 01-12-2022 07:00 CET